Terminal Aerodrome Forecast
Issued by NWS Atlanta, GA

Home | Current Version | Previous Version | Text Only | Print | Product List | Glossary On
Versions: 1 2 3 4 5 6 7 8 9 10 11 12 13 14 15 16 17 18 19 20 21
243
FTUS42 KFFC 232328
TAFMCN
TAF
KMCN 232328Z 2400/2424 VRB03KT P6SM FEW050 SCT150
     FM241500 25005KT P6SM SCT035
     FM241700 22006KT P6SM VCSH SCT045 PROB30 2420/2424 4SM TSRA
      BKN040CB=

USA.gov is the U.S. government's official web portal to all federal, state and local government web resources and services.